CheckWX is a tool to help pilots better visualize weather data.  It is not intended as a substitute for an official pre-flight weather briefing.

12:25:50 UTC

LHSN TAF
Szolnok Airport
Szolnok, Hungary
TAF LHSN 221115Z 2212/2221 VRB02KT CAVOK BECMG 2212/2214 03005KT

Mar-22@
12:00 UTC

Mar-22 @ 12:00 UTC

Mar-22@
21:00 UTC

Mar-22 @ 21:00 UTC

TAF LHSN 221115Z 2212/2221 VRB02KT CAVOK
Wind
  • Variable at 2 KTS
Conditions
No significant weather
Cloud Levels
  • No significant clouds

Mar-22@
12:00 UTC

Mar-22 @ 12:00 UTC

Mar-22@
21:00 UTC

Mar-22 @ 21:00 UTC

BECMG 2212/2214 03005KT

Becoming

Becoming Conditions expected by Fri, Mar 22, 2019 @ 14:00 UTC

Wind
  • 030° at 5 KTS
Conditions
No significant weather
Cloud Levels
  • No significant clouds